createdAt,value
2022-10-26T00:01:21.780Z,95.68
2022-10-26T00:06:25.239Z,95.69
2022-10-26T00:11:26.707Z,95.74
2022-10-26T00:16:28.421Z,95.50
2022-10-26T00:21:30.016Z,95.92
2022-10-26T00:26:31.471Z,95.79
2022-10-26T00:31:33.251Z,96.26
2022-10-26T00:36:34.744Z,96.00
2022-10-26T00:41:36.284Z,96.10
2022-10-26T00:46:38.420Z,96.11
2022-10-26T00:51:45.976Z,96.12
2022-10-26T00:56:52.248Z,96.27
2022-10-26T01:01:53.840Z,96.56
2022-10-26T01:06:55.956Z,96.40
2022-10-26T01:11:57.483Z,96.58
2022-10-26T01:17:20.418Z,96.57
2022-10-26T01:22:28.747Z,96.69
2022-10-26T01:27:36.085Z,96.67
2022-10-26T01:33:10.807Z,96.96
2022-10-26T01:38:38.160Z,97.02
2022-10-26T01:43:49.651Z,97.01
2022-10-26T01:48:56.073Z,97.14
2022-10-26T01:53:58.780Z,97.17
2022-10-26T01:59:17.910Z,97.37
2022-10-26T02:04:25.585Z,97.63
2022-10-26T02:09:48.933Z,97.46
2022-10-26T02:14:56.752Z,97.63
2022-10-26T02:20:03.810Z,97.68
2022-10-26T02:25:09.778Z,97.86
2022-10-26T02:30:13.351Z,97.97
2022-10-26T02:35:18.794Z,98.02
2022-10-26T02:40:25.343Z,98.20
2022-10-26T02:45:33.017Z,98.55
2022-10-26T02:51:01.805Z,98.45
2022-10-26T02:56:09.399Z,98.42
2022-10-26T03:01:11.536Z,98.33
2022-10-26T03:06:20.271Z,98.65
2022-10-26T03:11:21.755Z,98.71
2022-10-26T03:16:23.402Z,98.61
2022-10-26T03:21:24.903Z,98.55
2022-10-26T03:26:26.401Z,98.82
2022-10-26T03:31:27.868Z,98.84
2022-10-26T03:36:29.325Z,98.67
2022-10-26T03:41:30.779Z,98.95
2022-10-26T03:46:32.279Z,98.97
2022-10-26T03:51:34.905Z,98.95
2022-10-26T03:56:36.387Z,98.79
2022-10-26T04:01:38.095Z,99.10
2022-10-26T04:06:39.682Z,99.19
2022-10-26T04:11:41.151Z,99.13
2022-10-26T04:16:42.606Z,99.15
2022-10-26T04:21:44.065Z,99.10
2022-10-26T04:26:45.584Z,99.14
2022-10-26T04:31:47.082Z,99.25
2022-10-26T04:36:48.552Z,99.24
2022-10-26T04:41:50.014Z,99.31
2022-10-26T04:46:51.482Z,99.10
2022-10-26T04:51:52.918Z,99.29
2022-10-26T04:56:54.364Z,99.23
2022-10-26T05:01:56.072Z,99.23
2022-10-26T05:06:57.706Z,99.19
2022-10-26T05:11:59.153Z,99.29
2022-10-26T05:17:00.657Z,99.19
2022-10-26T05:22:02.106Z,99.40
2022-10-26T05:27:03.559Z,99.32
2022-10-26T05:32:05.107Z,99.12
2022-10-26T05:37:06.564Z,99.35
2022-10-26T05:42:08.004Z,99.33
2022-10-26T05:47:09.488Z,99.34
2022-10-26T05:52:10.923Z,99.27
2022-10-26T05:57:13.352Z,99.17
2022-10-26T06:02:26.711Z,99.31
2022-10-26T06:07:28.542Z,99.17
2022-10-26T06:12:30.109Z,99.29
2022-10-26T06:17:53.743Z,99.11
2022-10-26T06:23:16.980Z,99.29
2022-10-26T06:28:46.193Z,99.26
2022-10-26T06:33:52.458Z,99.08
2022-10-26T06:39:01.620Z,99.18
2022-10-26T06:44:05.742Z,99.34
2022-10-26T06:49:33.360Z,99.30
2022-10-26T06:54:54.547Z,99.31
2022-10-26T07:00:02.962Z,99.45
2022-10-26T07:05:05.224Z,99.52
2022-10-26T07:10:07.103Z,99.53
2022-10-26T07:20:17.274Z,99.67
2022-10-26T07:25:18.824Z,99.50
2022-10-26T07:30:20.348Z,99.69
2022-10-26T07:35:21.792Z,99.66
2022-10-26T07:40:23.322Z,99.85
2022-10-26T07:45:26.531Z,99.83
2022-10-26T07:50:28.160Z,99.91
2022-10-26T07:55:29.672Z,99.68
2022-10-26T08:00:31.349Z,98.83
2022-10-26T08:05:32.992Z,96.04
2022-10-26T08:10:34.552Z,88.58
2022-10-26T08:15:36.256Z,84.63
2022-10-26T08:20:37.710Z,84.43
2022-10-26T08:25:39.220Z,85.59
2022-10-26T08:30:40.710Z,86.73
2022-10-26T08:35:42.190Z,87.51
2022-10-26T08:40:43.844Z,88.17
2022-10-26T08:45:59.227Z,88.70
2022-10-26T08:51:20.364Z,88.91
2022-10-26T08:56:26.346Z,88.95
2022-10-26T09:01:31.382Z,89.19
2022-10-26T09:06:46.692Z,88.83
2022-10-26T09:11:48.231Z,87.76
2022-10-26T09:17:11.449Z,87.63
2022-10-26T09:22:28.555Z,87.17
2022-10-26T09:27:37.719Z,85.74
2022-10-26T09:32:45.077Z,84.59
2022-10-26T09:38:03.812Z,83.68
2022-10-26T09:43:13.651Z,82.67
2022-10-26T09:48:22.567Z,81.83
2022-10-26T09:53:24.016Z,81.38
2022-10-26T09:58:30.276Z,80.69
2022-10-26T10:03:32.479Z,80.02
2022-10-26T10:08:34.117Z,79.41
2022-10-26T10:13:38.656Z,78.94
2022-10-26T10:18:41.842Z,79.41
2022-10-26T10:23:49.680Z,80.15
2022-10-26T10:28:59.924Z,80.12
2022-10-26T10:34:15.765Z,80.20
2022-10-26T10:39:40.730Z,80.28
2022-10-26T10:44:44.057Z,80.49
2022-10-26T10:49:55.401Z,80.21
2022-10-26T10:55:13.128Z,80.30
2022-10-26T11:00:15.970Z,80.36
2022-10-26T11:05:26.471Z,79.50
2022-10-26T11:10:37.440Z,79.07
2022-10-26T11:15:42.125Z,78.84
2022-10-26T11:20:51.260Z,77.75
2022-10-26T11:25:59.094Z,76.46
2022-10-26T11:31:05.764Z,75.85
2022-10-26T11:36:17.358Z,75.79
2022-10-26T11:41:46.202Z,74.90
2022-10-26T11:46:55.764Z,74.85
2022-10-26T11:51:57.129Z,74.17
2022-10-26T11:57:00.076Z,73.39
2022-10-26T12:02:04.659Z,73.24
2022-10-26T12:07:16.728Z,72.93
2022-10-26T12:12:31.581Z,71.94
2022-10-26T12:17:42.528Z,71.54
2022-10-26T12:22:44.695Z,71.45
2022-10-26T12:32:48.663Z,71.35
2022-10-26T12:37:50.646Z,70.75
2022-10-26T12:42:52.290Z,70.47
2022-10-26T12:47:53.684Z,70.57
2022-10-26T12:53:06.154Z,70.63
2022-10-26T12:59:05.124Z,70.52
2022-10-26T13:04:47.207Z,70.27
2022-10-26T13:10:11.361Z,70.15
2022-10-26T13:15:32.712Z,70.12
2022-10-26T13:20:36.748Z,70.41
2022-10-26T13:25:39.035Z,70.81
2022-10-26T13:30:46.823Z,70.52
2022-10-26T13:35:51.181Z,70.92
2022-10-26T13:41:00.438Z,71.07
2022-10-26T13:46:04.099Z,71.12
2022-10-26T13:51:20.883Z,71.43
2022-10-26T13:56:30.099Z,71.32
2022-10-26T14:01:32.337Z,71.53
2022-10-26T14:06:37.408Z,71.24
2022-10-26T14:11:48.304Z,71.86
2022-10-26T14:16:52.429Z,71.98
2022-10-26T14:21:54.849Z,72.53
2022-10-26T14:26:56.580Z,72.32
2022-10-26T14:31:58.080Z,72.46
2022-10-26T14:37:02.800Z,72.44
2022-10-26T14:42:29.580Z,73.21
2022-10-26T14:47:33.303Z,73.22
2022-10-26T14:52:36.557Z,73.61
2022-10-26T14:57:39.708Z,74.16
2022-10-26T15:02:42.758Z,74.36
2022-10-26T15:07:45.497Z,74.75
2022-10-26T15:12:46.994Z,74.91
2022-10-26T15:17:52.671Z,75.06
2022-10-26T15:22:57.358Z,75.52
2022-10-26T15:28:20.608Z,75.90
2022-10-26T15:33:22.257Z,76.19
2022-10-26T15:38:24.640Z,76.28
2022-10-26T15:43:26.939Z,76.83
2022-10-26T15:48:32.053Z,77.47
2022-10-26T15:53:33.680Z,78.14
2022-10-26T15:58:35.283Z,78.59
2022-10-26T16:03:36.739Z,78.98
2022-10-26T16:08:39.072Z,79.68
2022-10-26T16:13:40.655Z,80.26
2022-10-26T16:18:42.957Z,80.79
2022-10-26T16:23:52.784Z,81.16
2022-10-26T16:28:54.291Z,82.12
2022-10-26T16:33:58.085Z,82.41
2022-10-26T16:44:03.309Z,83.77
2022-10-26T16:49:04.758Z,84.09
2022-10-26T16:54:06.225Z,84.78
2022-10-26T16:59:09.376Z,85.29
2022-10-26T17:04:10.904Z,85.70
2022-10-26T17:09:12.437Z,86.27
2022-10-26T17:14:14.012Z,86.55
2022-10-26T17:19:15.698Z,87.14
2022-10-26T17:24:18.807Z,87.57
2022-10-26T17:29:20.384Z,87.97
2022-10-26T17:34:21.869Z,88.68
2022-10-26T17:39:23.419Z,89.14
2022-10-26T17:44:24.874Z,89.26
2022-10-26T17:49:27.984Z,89.62
2022-10-26T17:54:30.837Z,89.90
2022-10-26T17:59:32.291Z,90.18
2022-10-26T18:04:33.760Z,90.30
2022-10-26T18:09:35.515Z,90.29
2022-10-26T18:14:37.124Z,90.59
2022-10-26T18:19:38.796Z,90.73
2022-10-26T18:24:40.379Z,91.23
2022-10-26T18:29:41.893Z,91.33
2022-10-26T18:34:43.439Z,91.65
2022-10-26T18:39:44.910Z,91.58
2022-10-26T18:44:46.420Z,91.97
2022-10-26T18:49:47.871Z,92.00
2022-10-26T18:54:50.393Z,92.10
2022-10-26T18:59:54.840Z,92.41
2022-10-26T19:04:58.763Z,92.48
2022-10-26T19:10:00.380Z,92.67
2022-10-26T19:15:01.873Z,92.83
2022-10-26T19:20:03.791Z,93.26
2022-10-26T19:25:05.749Z,93.65
2022-10-26T19:30:07.819Z,93.98
2022-10-26T19:35:09.398Z,94.15
2022-10-26T19:40:11.123Z,94.39
2022-10-26T19:45:12.570Z,94.68
2022-10-26T19:50:14.073Z,94.92
2022-10-26T19:55:15.673Z,95.20
2022-10-26T20:00:17.331Z,95.32
2022-10-26T20:05:18.872Z,95.49
2022-10-26T20:10:20.414Z,95.36
2022-10-26T20:15:21.952Z,95.64
2022-10-26T20:20:23.782Z,95.46
2022-10-26T20:25:28.267Z,95.32
2022-10-26T20:30:31.836Z,95.44
2022-10-26T20:35:33.561Z,95.24
2022-10-26T20:40:35.483Z,95.22
2022-10-26T20:45:37.442Z,95.32
2022-10-26T20:50:41.193Z,95.38
2022-10-26T20:55:51.367Z,95.32
2022-10-26T21:01:00.711Z,95.22
2022-10-26T21:06:02.430Z,95.50
2022-10-26T21:11:03.896Z,95.33
2022-10-26T21:16:08.073Z,95.12
2022-10-26T21:21:09.805Z,95.16
2022-10-26T21:26:12.029Z,95.30
2022-10-26T21:31:16.358Z,95.25
2022-10-26T21:36:18.135Z,95.20
2022-10-26T21:41:20.954Z,95.31
2022-10-26T21:46:22.501Z,95.15
2022-10-26T21:51:23.962Z,95.21
2022-10-26T21:56:25.412Z,95.34
2022-10-26T22:01:27.046Z,95.36
2022-10-26T22:06:28.641Z,95.52
2022-10-26T22:11:31.340Z,95.47
2022-10-26T22:16:33.351Z,95.44
2022-10-26T22:21:41.272Z,95.53
2022-10-26T22:26:42.915Z,95.37
2022-10-26T22:31:44.473Z,95.51
2022-10-26T22:36:46.016Z,95.52
2022-10-26T22:41:49.318Z,95.56
2022-10-26T22:46:50.802Z,95.63
2022-10-26T22:51:52.242Z,95.79
2022-10-26T22:56:53.712Z,95.83
2022-10-26T23:01:55.327Z,95.79
2022-10-26T23:06:56.886Z,95.83
2022-10-26T23:11:58.343Z,95.99
2022-10-26T23:16:59.843Z,96.03
2022-10-26T23:22:01.691Z,96.23
2022-10-26T23:27:03.329Z,96.28
2022-10-26T23:32:04.819Z,96.48
2022-10-26T23:37:06.306Z,96.64
2022-10-26T23:42:07.759Z,96.73
2022-10-26T23:47:09.209Z,96.76
2022-10-26T23:52:10.729Z,96.86
2022-10-26T23:57:12.218Z,96.89
